createdAt,value
2022-09-04T00:00:42.856Z,981.04
2022-09-04T00:01:45.355Z,981.02
2022-09-04T00:02:42.823Z,980.98
2022-09-04T00:03:42.970Z,981.00
2022-09-04T00:04:43.025Z,981.09
2022-09-04T00:05:42.795Z,981.05
2022-09-04T00:06:42.787Z,981.01
2022-09-04T00:07:42.781Z,981.05
2022-09-04T00:08:42.785Z,981.06
2022-09-04T00:09:42.794Z,981.03
2022-09-04T00:10:42.760Z,981.10
2022-09-04T00:11:42.755Z,981.07
2022-09-04T00:12:42.744Z,981.07
2022-09-04T00:13:42.774Z,981.09
2022-09-04T00:14:42.760Z,981.01
2022-09-04T00:15:42.699Z,980.99
2022-09-04T00:16:42.948Z,981.10
2022-09-04T00:17:42.680Z,981.10
2022-09-04T00:18:42.670Z,981.07
2022-09-04T00:19:42.663Z,981.12
2022-09-04T00:20:42.684Z,981.12
2022-09-04T00:21:42.643Z,981.14
2022-09-04T00:22:42.631Z,981.13
2022-09-04T00:23:42.624Z,981.12
2022-09-04T00:24:42.616Z,981.12
2022-09-04T00:25:42.632Z,981.14
2022-09-04T00:26:42.592Z,981.15
2022-09-04T00:27:42.582Z,981.19
2022-09-04T00:28:42.573Z,981.12
2022-09-04T00:29:42.567Z,981.16
2022-09-04T00:30:42.610Z,981.12
2022-09-04T00:31:42.576Z,981.08
2022-09-04T00:32:42.533Z,981.12
2022-09-04T00:33:42.531Z,981.11
2022-09-04T00:34:42.515Z,981.14
2022-09-04T00:35:42.512Z,981.08
2022-09-04T00:36:45.824Z,981.13
2022-09-04T00:37:43.491Z,981.15
2022-09-04T00:38:42.470Z,981.19
2022-09-04T00:39:43.560Z,981.22
2022-09-04T00:40:42.470Z,981.19
2022-09-04T00:41:42.453Z,981.16
2022-09-04T00:42:42.470Z,981.18
2022-09-04T00:43:42.430Z,981.30
2022-09-04T00:44:42.436Z,981.27
2022-09-04T00:45:42.446Z,981.21
2022-09-04T00:46:42.405Z,981.24
2022-09-04T00:47:42.421Z,981.19
2022-09-04T00:48:42.386Z,981.26
2022-09-04T00:49:42.370Z,981.29
2022-09-04T00:50:42.364Z,981.33
2022-09-04T00:51:42.349Z,981.34
2022-09-04T00:52:42.339Z,981.35
2022-09-04T00:53:42.405Z,981.33
2022-09-04T00:54:42.339Z,981.32
2022-09-04T00:55:42.313Z,981.37
2022-09-04T00:56:42.302Z,981.37
2022-09-04T00:57:42.296Z,981.38
2022-09-04T00:58:42.317Z,981.38
2022-09-04T00:59:42.275Z,981.39
2022-09-04T01:00:42.320Z,981.41
2022-09-04T01:01:42.340Z,981.42
2022-09-04T01:02:42.243Z,981.42
2022-09-04T01:03:42.274Z,981.44
2022-09-04T01:04:42.263Z,981.41
2022-09-04T01:05:42.214Z,981.42
2022-09-04T01:06:42.200Z,981.46
2022-09-04T01:07:42.191Z,981.45
2022-09-04T01:08:42.188Z,981.47
2022-09-04T01:09:42.199Z,981.42
2022-09-04T01:10:42.162Z,981.53
2022-09-04T01:11:42.150Z,981.42
2022-09-04T01:12:42.139Z,981.46
2022-09-04T01:13:42.132Z,981.47
2022-09-04T01:14:42.123Z,981.52
2022-09-04T01:15:42.141Z,981.53
2022-09-04T01:16:42.166Z,981.52
2022-09-04T01:17:42.088Z,981.53
2022-09-04T01:18:42.081Z,981.53
2022-09-04T01:19:42.060Z,981.47
2022-09-04T01:20:42.097Z,981.52
2022-09-04T01:21:42.053Z,981.48
2022-09-04T01:22:42.036Z,981.53
2022-09-04T01:23:42.026Z,981.51
2022-09-04T01:24:42.019Z,981.58
2022-09-04T01:25:42.007Z,981.58
2022-09-04T01:26:42.032Z,981.61
2022-09-04T01:27:41.990Z,981.60
2022-09-04T01:28:41.979Z,981.51
2022-09-04T01:29:41.970Z,981.62
2022-09-04T01:30:41.959Z,981.64
2022-09-04T01:31:42.003Z,981.55
2022-09-04T01:32:41.945Z,981.53
2022-09-04T01:33:41.931Z,981.56
2022-09-04T01:34:41.920Z,981.60
2022-09-04T01:35:41.912Z,981.51
2022-09-04T01:36:41.902Z,981.62
2022-09-04T01:37:41.921Z,981.59
2022-09-04T01:38:41.883Z,981.61
2022-09-04T01:39:41.901Z,981.62
2022-09-04T01:40:41.863Z,981.66
2022-09-04T01:41:41.856Z,981.60
2022-09-04T01:42:41.877Z,981.67
2022-09-04T01:43:41.834Z,981.68
2022-09-04T01:44:41.826Z,981.61
2022-09-04T01:45:41.892Z,981.67
2022-09-04T01:46:41.808Z,981.66
2022-09-04T01:47:41.800Z,981.63
2022-09-04T01:48:41.817Z,981.59
2022-09-04T01:49:41.777Z,981.59
2022-09-04T01:50:41.772Z,981.57
2022-09-04T01:51:41.755Z,981.60
2022-09-04T01:52:41.746Z,981.58
2022-09-04T01:53:41.807Z,981.59
2022-09-04T01:54:41.731Z,981.53
2022-09-04T01:55:41.719Z,981.52
2022-09-04T01:56:41.710Z,981.44
2022-09-04T01:57:41.701Z,981.53
2022-09-04T01:58:41.691Z,981.54
2022-09-04T01:59:41.711Z,981.56
2022-09-04T02:00:41.693Z,981.51
2022-09-04T02:01:41.735Z,981.55
2022-09-04T02:02:41.653Z,981.56
2022-09-04T02:03:41.646Z,981.52
2022-09-04T02:04:41.665Z,981.54
2022-09-04T02:05:41.623Z,981.55
2022-09-04T02:06:41.616Z,981.53
2022-09-04T02:07:41.603Z,981.54
2022-09-04T02:08:41.600Z,981.56
2022-09-04T02:09:41.588Z,981.57
2022-09-04T02:10:41.613Z,981.46
2022-09-04T02:11:41.568Z,981.52
2022-09-04T02:12:41.555Z,981.50
2022-09-04T02:13:41.550Z,981.50
2022-09-04T02:14:41.533Z,981.54
2022-09-04T02:15:41.561Z,981.55
2022-09-04T02:16:41.583Z,981.58
2022-09-04T02:17:41.510Z,981.60
2022-09-04T02:18:41.500Z,981.58
2022-09-04T02:19:41.492Z,981.61
2022-09-04T02:20:41.483Z,981.62
2022-09-04T02:21:41.497Z,981.64
2022-09-04T02:22:41.460Z,981.62
2022-09-04T02:23:41.450Z,981.62
2022-09-04T02:24:41.436Z,981.59
2022-09-04T02:25:41.434Z,981.61
2022-09-04T02:26:41.453Z,981.58
2022-09-04T02:27:41.409Z,981.62
2022-09-04T02:28:41.402Z,981.60
2022-09-04T02:29:41.389Z,981.58
2022-09-04T02:30:41.383Z,981.58
2022-09-04T02:31:41.403Z,981.62
2022-09-04T02:32:41.397Z,981.60
2022-09-04T02:33:41.355Z,981.62
2022-09-04T02:34:41.340Z,981.67
2022-09-04T02:35:41.331Z,981.61
2022-09-04T02:36:41.331Z,981.65
2022-09-04T02:37:41.345Z,981.63
2022-09-04T02:38:41.304Z,981.70
2022-09-04T02:39:41.406Z,981.67
2022-09-04T02:40:41.290Z,981.68
2022-09-04T02:41:41.275Z,981.68
2022-09-04T02:42:41.268Z,981.67
2022-09-04T02:43:41.273Z,981.63
2022-09-04T02:44:41.268Z,981.68
2022-09-04T02:45:41.235Z,981.68
2022-09-04T02:46:43.239Z,981.66
2022-09-04T02:47:42.218Z,981.70
2022-09-04T02:48:41.234Z,981.69
2022-09-04T02:49:41.199Z,981.66
2022-09-04T02:50:41.189Z,981.69
2022-09-04T02:51:41.179Z,981.73
2022-09-04T02:52:41.199Z,981.69
2022-09-04T02:53:41.167Z,981.69
2022-09-04T02:54:41.161Z,981.79
2022-09-04T02:55:41.139Z,981.73
2022-09-04T02:56:41.140Z,981.67
2022-09-04T02:57:41.120Z,981.73
2022-09-04T02:58:41.107Z,981.74
2022-09-04T02:59:41.154Z,981.75
2022-09-04T03:00:41.111Z,981.74
2022-09-04T03:01:41.139Z,981.77
2022-09-04T03:02:41.067Z,981.79
2022-09-04T03:03:41.056Z,981.71
2022-09-04T03:04:41.088Z,981.78
2022-09-04T03:05:41.035Z,981.86
2022-09-04T03:06:41.031Z,981.80
2022-09-04T03:07:41.021Z,981.82
2022-09-04T03:08:41.029Z,981.81
2022-09-04T03:09:40.997Z,981.85
2022-09-04T03:10:41.002Z,981.91
2022-09-04T03:11:40.977Z,981.92
2022-09-04T03:12:40.970Z,981.86
2022-09-04T03:13:40.958Z,981.89
2022-09-04T03:14:40.949Z,981.88
2022-09-04T03:15:40.953Z,981.90
2022-09-04T03:16:40.975Z,981.87
2022-09-04T03:17:40.907Z,981.92
2022-09-04T03:18:41.916Z,981.90
2022-09-04T03:19:40.893Z,981.96
2022-09-04T03:20:40.898Z,981.97
2022-09-04T03:21:40.873Z,981.93
2022-09-04T03:22:40.877Z,982.01
2022-09-04T03:23:40.860Z,982.00
2022-09-04T03:24:40.849Z,981.99
2022-09-04T03:25:40.902Z,982.00
2022-09-04T03:26:40.824Z,982.01
2022-09-04T03:27:40.822Z,981.99
2022-09-04T03:28:40.811Z,982.03
2022-09-04T03:29:40.803Z,982.05
2022-09-04T03:30:40.826Z,982.03
2022-09-04T03:31:40.861Z,982.01
2022-09-04T03:32:40.777Z,982.03
2022-09-04T03:33:40.766Z,982.07
2022-09-04T03:34:40.756Z,982.00
2022-09-04T03:35:40.744Z,982.01
2022-09-04T03:36:40.774Z,982.02
2022-09-04T03:37:40.733Z,982.01
2022-09-04T03:38:40.712Z,982.06
2022-09-04T03:39:40.784Z,982.10
2022-09-04T03:40:40.690Z,982.08
2022-09-04T03:41:40.720Z,982.03
2022-09-04T03:42:40.677Z,982.09
2022-09-04T03:43:40.666Z,982.13
2022-09-04T03:44:40.651Z,982.11
2022-09-04T03:45:40.638Z,982.10
2022-09-04T03:46:40.651Z,982.13
2022-09-04T03:47:40.656Z,982.16
2022-09-04T03:48:40.609Z,982.12
2022-09-04T03:49:40.600Z,982.12
2022-09-04T03:50:40.590Z,982.14
2022-09-04T03:51:40.580Z,982.14
2022-09-04T03:52:40.598Z,982.13
2022-09-04T03:53:40.556Z,982.10
2022-09-04T03:54:40.549Z,982.12
2022-09-04T03:55:40.543Z,982.15
2022-09-04T03:56:40.533Z,982.10
2022-09-04T03:57:40.521Z,982.12
2022-09-04T03:58:40.554Z,982.10
2022-09-04T03:59:40.505Z,982.16
2022-09-04T04:00:40.536Z,982.13
2022-09-04T04:01:40.482Z,982.06
2022-09-04T04:02:40.534Z,982.09
2022-09-04T04:03:40.493Z,982.13
2022-09-04T04:04:40.455Z,982.17
2022-09-04T04:05:40.446Z,982.19
2022-09-04T04:06:40.431Z,982.23
2022-09-04T04:07:40.426Z,982.22
2022-09-04T04:08:40.425Z,982.27
2022-09-04T04:09:40.433Z,982.25
2022-09-04T04:10:40.401Z,982.21
2022-09-04T04:11:43.488Z,982.19
2022-09-04T04:12:41.377Z,982.18
2022-09-04T04:13:40.365Z,982.20
2022-09-04T04:14:40.401Z,982.21
2022-09-04T04:15:40.353Z,982.21
2022-09-04T04:16:40.412Z,982.20
2022-09-04T04:17:40.328Z,982.25
2022-09-04T04:18:40.316Z,982.27
2022-09-04T04:19:40.309Z,982.33
2022-09-04T04:20:40.327Z,982.32
2022-09-04T04:21:40.283Z,982.34
2022-09-04T04:22:40.272Z,982.34
2022-09-04T04:23:40.265Z,982.36
2022-09-04T04:24:40.262Z,982.35
2022-09-04T04:25:40.294Z,982.32
2022-09-04T04:26:40.237Z,982.31
2022-09-04T04:27:40.225Z,982.33
2022-09-04T04:28:40.212Z,982.39
2022-09-04T04:29:40.203Z,982.37
2022-09-04T04:30:40.193Z,982.36
2022-09-04T04:31:40.307Z,982.37
2022-09-04T04:32:40.170Z,982.35
2022-09-04T04:33:40.161Z,982.33
2022-09-04T04:34:40.151Z,982.33
2022-09-04T04:35:40.142Z,982.37
2022-09-04T04:36:40.172Z,982.38
2022-09-04T04:37:40.120Z,982.43
2022-09-04T04:38:40.113Z,982.40
2022-09-04T04:39:40.147Z,982.39
2022-09-04T04:40:40.091Z,982.46
2022-09-04T04:41:40.085Z,982.42
2022-09-04T04:42:40.117Z,982.46
2022-09-04T04:43:40.065Z,982.48
2022-09-04T04:44:40.052Z,982.44
2022-09-04T04:45:40.046Z,982.52
2022-09-04T04:46:40.097Z,982.47
2022-09-04T04:47:40.057Z,982.48
2022-09-04T04:48:40.016Z,982.47
2022-09-04T04:49:39.999Z,982.48
2022-09-04T04:50:39.994Z,982.48
2022-09-04T04:51:39.983Z,982.51
2022-09-04T04:52:39.977Z,982.51
2022-09-04T04:53:39.985Z,982.52
2022-09-04T04:54:39.944Z,982.50
2022-09-04T04:55:39.941Z,982.60
2022-09-04T04:56:39.928Z,982.58
2022-09-04T04:57:39.918Z,982.62
2022-09-04T04:58:39.948Z,982.60
2022-09-04T04:59:39.901Z,982.62
2022-09-04T05:00:39.889Z,982.64
2022-09-04T05:01:40.040Z,982.65
2022-09-04T05:02:40.063Z,982.67
2022-09-04T05:03:39.858Z,982.60
2022-09-04T05:04:39.877Z,982.67
2022-09-04T05:05:39.838Z,982.66
2022-09-04T05:06:39.828Z,982.63
2022-09-04T05:07:39.812Z,982.65
2022-09-04T05:08:39.806Z,982.61
2022-09-04T05:09:39.821Z,982.66
2022-09-04T05:10:39.785Z,982.67
2022-09-04T05:11:39.775Z,982.66
2022-09-04T05:12:39.767Z,982.69
2022-09-04T05:13:39.756Z,982.66
2022-09-04T05:14:40.770Z,982.68
2022-09-04T05:15:58.096Z,982.68
2022-09-04T05:16:41.792Z,982.70
2022-09-04T05:17:39.705Z,982.69
2022-09-04T05:18:39.700Z,982.75
2022-09-04T05:19:39.690Z,982.79
2022-09-04T05:20:39.700Z,982.71
2022-09-04T05:21:39.676Z,982.77
2022-09-04T05:22:39.670Z,982.80
2022-09-04T05:23:39.652Z,982.77
2022-09-04T05:24:39.641Z,982.77
2022-09-04T05:25:39.649Z,982.79
2022-09-04T05:26:39.622Z,982.86
2022-09-04T05:27:39.610Z,982.82
2022-09-04T05:28:39.592Z,982.79
2022-09-04T05:29:39.594Z,982.83
2022-09-04T05:30:39.633Z,982.84
2022-09-04T05:31:39.595Z,982.83
2022-09-04T05:32:39.565Z,982.92
2022-09-04T05:33:39.548Z,982.92
2022-09-04T05:34:39.550Z,982.95
2022-09-04T05:35:39.560Z,983.01
2022-09-04T05:36:39.525Z,982.95
2022-09-04T05:37:39.520Z,983.01
2022-09-04T05:38:39.502Z,983.02
2022-09-04T05:39:39.532Z,983.05
2022-09-04T05:40:39.483Z,983.05
2022-09-04T05:41:39.520Z,983.14
2022-09-04T05:42:39.462Z,983.09
2022-09-04T05:43:39.450Z,983.10
2022-09-04T05:44:39.452Z,983.13
2022-09-04T05:45:39.430Z,983.15
2022-09-04T05:46:39.602Z,983.18
2022-09-04T05:47:39.411Z,983.12
2022-09-04T05:48:39.400Z,983.15
2022-09-04T05:49:39.386Z,983.18
2022-09-04T05:50:39.375Z,983.18
2022-09-04T05:51:39.372Z,983.16
2022-09-04T05:52:39.390Z,983.22
2022-09-04T05:53:39.353Z,983.20
2022-09-04T05:54:39.334Z,983.20
2022-09-04T05:55:40.331Z,983.17
2022-09-04T05:56:39.321Z,983.20
2022-09-04T05:57:39.349Z,983.19
2022-09-04T05:58:39.302Z,983.24
2022-09-04T05:59:39.290Z,983.23
2022-09-04T06:00:39.283Z,983.18
2022-09-04T06:01:39.355Z,983.25
2022-09-04T06:02:39.369Z,983.28
2022-09-04T06:03:39.280Z,983.23
2022-09-04T06:04:39.245Z,983.35
2022-09-04T06:05:39.233Z,983.32
2022-09-04T06:06:39.221Z,983.30
2022-09-04T06:07:39.207Z,983.29
2022-09-04T06:08:39.240Z,983.30
2022-09-04T06:09:39.195Z,983.34
2022-09-04T06:10:39.185Z,983.26
2022-09-04T06:11:39.172Z,983.28
2022-09-04T06:12:39.173Z,983.31
2022-09-04T06:13:39.151Z,983.29
2022-09-04T06:14:39.181Z,983.36
2022-09-04T06:15:39.215Z,983.37
2022-09-04T06:16:39.121Z,983.40
2022-09-04T06:17:39.111Z,983.36
2022-09-04T06:18:39.103Z,983.32
2022-09-04T06:19:39.125Z,983.36
2022-09-04T06:20:39.082Z,983.33
2022-09-04T06:21:39.071Z,983.38
2022-09-04T06:22:39.070Z,983.35
2022-09-04T06:23:39.054Z,983.34
2022-09-04T06:24:39.047Z,983.39
2022-09-04T06:25:39.083Z,983.43
2022-09-04T06:26:39.021Z,983.46
2022-09-04T06:27:39.013Z,983.41
2022-09-04T06:28:39.006Z,983.39
2022-09-04T06:29:38.998Z,983.35
2022-09-04T06:30:39.025Z,983.36
2022-09-04T06:31:39.034Z,983.35
2022-09-04T06:32:38.964Z,983.35
2022-09-04T06:33:38.958Z,983.33
2022-09-04T06:34:38.948Z,983.33
2022-09-04T06:35:38.936Z,983.38
2022-09-04T06:36:38.942Z,983.42
2022-09-04T06:37:38.924Z,983.39
2022-09-04T06:38:38.934Z,983.43
2022-09-04T06:39:38.926Z,983.47
2022-09-04T06:40:38.888Z,983.43
2022-09-04T06:41:38.897Z,983.41
2022-09-04T06:42:38.874Z,983.40
2022-09-04T06:43:38.860Z,983.39
2022-09-04T06:44:38.848Z,983.45
2022-09-04T06:45:38.842Z,983.50
2022-09-04T06:46:38.944Z,983.43
2022-09-04T06:47:38.820Z,983.37
2022-09-04T06:48:38.811Z,983.53
2022-09-04T06:49:38.805Z,983.57
2022-09-04T06:50:38.791Z,983.58
2022-09-04T06:51:38.813Z,983.54
2022-09-04T06:52:38.774Z,983.62
2022-09-04T06:53:38.759Z,983.63
2022-09-04T06:54:38.755Z,983.57
2022-09-04T06:55:39.001Z,983.65
2022-09-04T06:56:38.737Z,983.62
2022-09-04T06:57:38.745Z,983.62
2022-09-04T06:58:38.715Z,983.64
2022-09-04T06:59:38.703Z,983.72
2022-09-04T07:00:38.691Z,983.76
2022-09-04T07:01:38.740Z,983.67
2022-09-04T07:02:38.958Z,983.73
2022-09-04T07:03:38.664Z,983.69
2022-09-04T07:04:38.659Z,983.74
2022-09-04T07:05:38.643Z,983.69
2022-09-04T07:06:38.637Z,983.71
2022-09-04T07:07:38.674Z,983.73
2022-09-04T07:08:38.614Z,983.81
2022-09-04T07:09:38.606Z,983.75
2022-09-04T07:10:38.598Z,983.80
2022-09-04T07:11:38.583Z,983.74
2022-09-04T07:12:38.572Z,983.72
2022-09-04T07:13:38.606Z,983.77
2022-09-04T07:14:38.552Z,983.76
2022-09-04T07:15:38.595Z,983.73
2022-09-04T07:16:38.555Z,983.72
2022-09-04T07:17:38.528Z,983.73
2022-09-04T07:18:38.548Z,983.66
2022-09-04T07:19:38.508Z,983.74
2022-09-04T07:20:38.500Z,983.67
2022-09-04T07:21:38.489Z,983.68
2022-09-04T07:22:38.480Z,983.76
2022-09-04T07:23:38.472Z,983.76
2022-09-04T07:24:38.499Z,983.78
2022-09-04T07:25:38.452Z,983.74
2022-09-04T07:26:38.442Z,983.76
2022-09-04T07:27:38.431Z,983.72
2022-09-04T07:28:38.421Z,983.73
2022-09-04T07:29:38.449Z,983.68
2022-09-04T07:30:38.402Z,983.59
2022-09-04T07:31:38.450Z,983.61
2022-09-04T07:32:38.380Z,983.60
2022-09-04T07:33:38.375Z,983.66
2022-09-04T07:34:38.365Z,983.69
2022-09-04T07:35:38.394Z,983.76
2022-09-04T07:36:38.342Z,983.70
2022-09-04T07:37:38.335Z,983.79
2022-09-04T07:38:38.329Z,983.75
2022-09-04T07:39:38.350Z,983.82
2022-09-04T07:40:38.512Z,983.83
2022-09-04T07:41:38.286Z,983.86
2022-09-04T07:42:38.288Z,983.80
2022-09-04T07:43:38.278Z,983.87
2022-09-04T07:44:38.272Z,983.82
2022-09-04T07:45:38.261Z,983.85
2022-09-04T07:46:38.339Z,983.88
2022-09-04T07:47:38.244Z,983.79
2022-09-04T07:48:38.235Z,983.88
2022-09-04T07:49:38.219Z,983.89
2022-09-04T07:50:38.214Z,983.88
2022-09-04T07:51:38.245Z,984.00
2022-09-04T07:52:38.195Z,983.91
2022-09-04T07:53:38.188Z,983.98
2022-09-04T07:54:38.174Z,984.00
2022-09-04T07:55:38.165Z,983.93
2022-09-04T07:56:38.196Z,983.97
2022-09-04T07:57:38.141Z,983.98
2022-09-04T07:58:38.133Z,984.00
2022-09-04T07:59:38.124Z,984.03
2022-09-04T08:00:38.110Z,984.05
2022-09-04T08:01:40.304Z,984.12
2022-09-04T08:02:39.143Z,984.08
2022-09-04T08:03:38.085Z,984.08
2022-09-04T08:04:39.126Z,984.04
2022-09-04T08:05:38.070Z,984.12
2022-09-04T08:06:38.058Z,984.13
2022-09-04T08:07:38.066Z,984.13
2022-09-04T08:08:38.055Z,984.17
2022-09-04T08:09:38.031Z,984.18
2022-09-04T08:10:38.019Z,984.19
2022-09-04T08:11:38.011Z,984.19
2022-09-04T08:12:38.019Z,984.21
2022-09-04T08:13:38.006Z,984.24
2022-09-04T08:14:37.977Z,984.21
2022-09-04T08:15:42.190Z,984.23
2022-09-04T08:16:38.958Z,984.30
2022-09-04T08:17:37.965Z,984.30
2022-09-04T08:18:37.963Z,984.31
2022-09-04T08:19:37.932Z,984.36
2022-09-04T08:20:37.926Z,984.28
2022-09-04T08:21:37.910Z,984.35
2022-09-04T08:22:37.915Z,984.31
2022-09-04T08:23:37.907Z,984.29
2022-09-04T08:24:37.879Z,984.28
2022-09-04T08:25:37.873Z,984.35
2022-09-04T08:26:37.864Z,984.27
2022-09-04T08:27:44.223Z,984.28
2022-09-04T08:28:42.935Z,984.33
2022-09-04T08:29:38.834Z,984.33
2022-09-04T08:30:37.857Z,984.32
2022-09-04T08:31:37.810Z,984.30
2022-09-04T08:32:38.270Z,984.32
2022-09-04T08:33:37.810Z,984.26
2022-09-04T08:34:37.785Z,984.33
2022-09-04T08:35:37.769Z,984.26
2022-09-04T08:36:37.764Z,984.30
2022-09-04T08:37:37.770Z,984.34
2022-09-04T08:38:37.763Z,984.32
2022-09-04T08:39:37.775Z,984.38
2022-09-04T08:40:37.725Z,984.33
2022-09-04T08:41:37.714Z,984.36
2022-09-04T08:42:37.739Z,984.36
2022-09-04T08:43:37.709Z,984.35
2022-09-04T08:44:37.690Z,984.42
2022-09-04T08:45:42.096Z,984.44
2022-09-04T08:46:38.735Z,984.41
2022-09-04T08:47:37.671Z,984.30
2022-09-04T08:48:37.662Z,984.38
2022-09-04T08:49:37.640Z,984.37
2022-09-04T08:50:37.630Z,984.37
2022-09-04T08:51:37.620Z,984.35
2022-09-04T08:52:37.644Z,984.42
2022-09-04T08:53:37.615Z,984.39
2022-09-04T08:54:37.591Z,984.41
2022-09-04T08:55:37.584Z,984.47
2022-09-04T08:56:37.573Z,984.46
2022-09-04T08:57:37.583Z,984.50
2022-09-04T08:58:37.571Z,984.46
2022-09-04T08:59:37.546Z,984.50
2022-09-04T09:00:37.533Z,984.45
2022-09-04T09:01:37.578Z,984.50
2022-09-04T09:02:37.616Z,984.47
2022-09-04T09:03:37.517Z,984.48
2022-09-04T09:04:37.496Z,984.49
2022-09-04T09:05:37.489Z,984.48
2022-09-04T09:06:37.479Z,984.46
2022-09-04T09:07:37.482Z,984.48
2022-09-04T09:08:37.474Z,984.41
2022-09-04T09:09:37.450Z,984.51
2022-09-04T09:10:37.440Z,984.47
2022-09-04T09:11:37.426Z,984.50
2022-09-04T09:12:41.580Z,984.50
2022-09-04T09:13:37.435Z,984.42
2022-09-04T09:14:37.401Z,984.43
2022-09-04T09:15:37.392Z,984.40
2022-09-04T09:16:37.466Z,984.48
2022-09-04T09:17:37.380Z,984.43
2022-09-04T09:18:37.388Z,984.41
2022-09-04T09:19:37.353Z,984.45
2022-09-04T09:20:37.343Z,984.37
2022-09-04T09:21:37.336Z,984.45
2022-09-04T09:22:37.333Z,984.41
2022-09-04T09:23:37.322Z,984.40
2022-09-04T09:24:37.298Z,984.42
2022-09-04T09:25:40.991Z,984.44
2022-09-04T09:26:38.281Z,984.42
2022-09-04T09:27:37.283Z,984.39
2022-09-04T09:28:37.278Z,984.42
2022-09-04T09:29:37.251Z,984.36
2022-09-04T09:30:37.267Z,984.34
2022-09-04T09:31:37.232Z,984.40
2022-09-04T09:32:37.245Z,984.38
2022-09-04T09:33:37.227Z,984.26
2022-09-04T09:34:37.203Z,984.30
2022-09-04T09:35:37.196Z,984.39
2022-09-04T09:36:37.190Z,984.28
2022-09-04T09:37:37.193Z,984.26
2022-09-04T09:38:37.185Z,984.27
2022-09-04T09:39:37.239Z,984.24
2022-09-04T09:40:37.182Z,984.18
2022-09-04T09:41:37.140Z,984.21
2022-09-04T09:42:37.130Z,984.21
2022-09-04T09:43:37.134Z,984.20
2022-09-04T09:44:37.111Z,984.25
2022-09-04T09:45:37.133Z,984.19
2022-09-04T09:46:37.088Z,984.15
2022-09-04T09:47:37.078Z,984.12
2022-09-04T09:48:37.120Z,984.17
2022-09-04T09:49:37.062Z,984.16
2022-09-04T09:50:37.050Z,984.15
2022-09-04T09:51:37.092Z,984.17
2022-09-04T09:52:37.034Z,984.18
2022-09-04T09:53:37.063Z,984.20
2022-09-04T09:54:37.014Z,984.19
2022-09-04T09:55:37.002Z,984.25
2022-09-04T09:56:37.008Z,984.15
2022-09-04T09:57:36.983Z,984.24
2022-09-04T09:58:36.972Z,984.16
2022-09-04T09:59:37.024Z,984.19
2022-09-04T10:00:36.955Z,984.17
2022-09-04T10:01:36.978Z,984.16
2022-09-04T10:02:36.990Z,984.17
2022-09-04T10:03:36.925Z,984.15
2022-09-04T10:04:36.950Z,984.16
2022-09-04T10:05:36.901Z,984.22
2022-09-04T10:06:36.904Z,984.20
2022-09-04T10:07:36.890Z,984.18
2022-09-04T10:08:36.878Z,984.21
2022-09-04T10:09:36.868Z,984.23
2022-09-04T10:10:36.888Z,984.23
2022-09-04T10:11:36.848Z,984.29
2022-09-04T10:12:36.838Z,984.34
2022-09-04T10:13:36.827Z,984.31
2022-09-04T10:14:36.820Z,984.39
2022-09-04T10:15:36.839Z,984.28
2022-09-04T10:16:36.824Z,984.25
2022-09-04T10:17:36.791Z,984.27
2022-09-04T10:18:36.786Z,984.26
2022-09-04T10:19:39.194Z,984.21
2022-09-04T10:20:37.808Z,984.29
2022-09-04T10:21:36.754Z,984.29
2022-09-04T10:22:36.758Z,984.27
2022-09-04T10:23:36.739Z,984.29
2022-09-04T10:24:36.726Z,984.25
2022-09-04T10:25:36.718Z,984.21
2022-09-04T10:26:36.731Z,984.24
2022-09-04T10:27:39.555Z,984.18
2022-09-04T10:28:37.691Z,984.20
2022-09-04T10:29:36.678Z,984.19
2022-09-04T10:30:36.738Z,984.15
2022-09-04T10:31:36.680Z,984.12
2022-09-04T10:32:36.652Z,984.08
2022-09-04T10:33:36.645Z,984.08
2022-09-04T10:34:36.630Z,984.11
2022-09-04T10:35:36.622Z,984.08
2022-09-04T10:36:36.655Z,984.10
2022-09-04T10:37:36.605Z,984.10
2022-09-04T10:38:36.597Z,984.14
2022-09-04T10:39:36.630Z,984.11
2022-09-04T10:40:40.916Z,984.09
2022-09-04T10:41:38.602Z,984.10
2022-09-04T10:42:36.559Z,984.07
2022-09-04T10:43:36.548Z,984.11
2022-09-04T10:44:36.537Z,984.14
2022-09-04T10:45:36.593Z,984.04
2022-09-04T10:46:36.538Z,984.05
2022-09-04T10:47:36.533Z,983.98
2022-09-04T10:48:36.507Z,984.00
2022-09-04T10:49:36.494Z,983.97
2022-09-04T10:50:36.483Z,983.96
2022-09-04T10:51:36.494Z,983.97
2022-09-04T10:52:36.472Z,983.96
2022-09-04T10:53:36.467Z,983.90
2022-09-04T10:54:36.451Z,983.94
2022-09-04T10:55:36.449Z,983.96
2022-09-04T10:56:36.434Z,983.95
2022-09-04T10:57:36.466Z,983.94
2022-09-04T10:58:36.414Z,983.95
2022-09-04T10:59:36.400Z,983.96
2022-09-04T11:00:36.403Z,983.96
2022-09-04T11:01:36.426Z,983.94
2022-09-04T11:02:36.481Z,983.92
2022-09-04T11:03:36.371Z,983.89
2022-09-04T11:04:36.387Z,983.98
2022-09-04T11:05:36.352Z,983.91
2022-09-04T11:06:36.340Z,983.91
2022-09-04T11:07:36.329Z,983.89
2022-09-04T11:08:36.549Z,983.92
2022-09-04T11:09:36.317Z,983.92
2022-09-04T11:10:36.302Z,983.90
2022-09-04T11:11:36.295Z,983.91
2022-09-04T11:12:36.283Z,983.89
2022-09-04T11:13:36.306Z,983.87
2022-09-04T11:14:36.266Z,983.85
2022-09-04T11:15:36.258Z,983.91
2022-09-04T11:16:36.367Z,983.88
2022-09-04T11:17:36.239Z,983.88
2022-09-04T11:18:36.230Z,983.90
2022-09-04T11:19:36.235Z,983.89
2022-09-04T11:20:36.214Z,983.86
2022-09-04T11:21:36.200Z,983.89
2022-09-04T11:22:36.194Z,983.89
2022-09-04T11:23:36.184Z,983.84
2022-09-04T11:24:36.201Z,983.86
2022-09-04T11:25:36.167Z,983.86
2022-09-04T11:26:36.160Z,983.80
2022-09-04T11:27:36.148Z,983.83
2022-09-04T11:28:36.138Z,983.86
2022-09-04T11:29:36.160Z,983.82
2022-09-04T11:30:36.122Z,983.77
2022-09-04T11:31:36.189Z,983.80
2022-09-04T11:32:36.114Z,983.77
2022-09-04T11:33:36.088Z,983.80
2022-09-04T11:34:36.082Z,983.78
2022-09-04T11:35:36.091Z,983.83
2022-09-04T11:36:36.069Z,983.80
2022-09-04T11:37:36.062Z,983.85
2022-09-04T11:38:36.050Z,983.80
2022-09-04T11:39:36.056Z,983.79
2022-09-04T11:40:36.074Z,983.80
2022-09-04T11:41:36.031Z,983.78
2022-09-04T11:42:36.021Z,983.80
2022-09-04T11:43:36.008Z,983.80
2022-09-04T11:44:35.999Z,983.81
2022-09-04T11:45:36.043Z,983.80
2022-09-04T11:46:35.979Z,983.77
2022-09-04T11:47:35.968Z,983.84
2022-09-04T11:48:35.961Z,983.77
2022-09-04T11:49:35.948Z,983.78
2022-09-04T11:50:35.942Z,983.80
2022-09-04T11:51:35.983Z,983.85
2022-09-04T11:52:35.925Z,983.78
2022-09-04T11:53:35.915Z,983.76
2022-09-04T11:54:35.906Z,983.80
2022-09-04T11:55:35.895Z,983.81
2022-09-04T11:56:35.929Z,983.80
2022-09-04T11:57:35.876Z,983.79
2022-09-04T11:58:35.872Z,983.76
2022-09-04T11:59:35.861Z,983.73
2022-09-04T12:00:35.852Z,983.71
2022-09-04T12:01:35.844Z,983.73
2022-09-04T12:02:35.943Z,983.68
2022-09-04T12:03:35.848Z,983.74
2022-09-04T12:04:35.815Z,983.76
2022-09-04T12:05:35.807Z,983.75
2022-09-04T12:06:35.836Z,983.81
2022-09-04T12:07:42.942Z,983.76
2022-09-04T12:08:37.777Z,983.86
2022-09-04T12:09:35.766Z,983.82
2022-09-04T12:10:35.758Z,983.78
2022-09-04T12:11:35.750Z,983.76
2022-09-04T12:12:35.800Z,983.71
2022-09-04T12:13:35.734Z,983.80
2022-09-04T12:14:35.724Z,983.72
2022-09-04T12:15:35.713Z,983.80
2022-09-04T12:16:35.738Z,983.77
2022-09-04T12:17:35.732Z,983.76
2022-09-04T12:18:35.691Z,983.84
2022-09-04T12:19:35.671Z,983.80
2022-09-04T12:20:35.661Z,983.73
2022-09-04T12:21:35.648Z,983.76
2022-09-04T12:22:36.680Z,983.81
2022-09-04T12:23:35.640Z,983.80
2022-09-04T12:24:35.634Z,983.74
2022-09-04T12:25:35.619Z,983.83
2022-09-04T12:26:35.605Z,983.83
2022-09-04T12:27:35.602Z,983.82
2022-09-04T12:28:35.607Z,983.79